Latest Weather Observations for St Kilda Harbour RMYS

IDV60801

Issued at 2:42 am EST Thursday 28 May 2020 (issued every 10 minutes, with the page automatically refreshed every 10 minutes)

About weather observations | Map of weather stations | Latest weather observations for VIC | Other Formats
Station Details ID: 086220 Name: ST KILDA HARBOUR - RMYS Lat: -37.86 Lon: 144.96 Height: 6.4 m
Data from the previous 72 hours. | See also: Recent months at St Kilda Harbour RMYS
Date/Time
EST
Temp
°C
App
Temp
°C
Dew
Point
°C
Rel
Hum
%
Delta-T
°C
Wind Press
QNH
hPa
Press
MSL
hPa
Rain since
9am
mm
Dir  Spd
km/h
Gust
km/h
Spd
kts
Gust
kts
28/02:30am - - - - - NNE 9 11 5 6 - - -
28/02:00am - - - - - N 13 19 7 10 - - -
28/01:30am - - - - - NNE 11 17 6 9 - - -
28/01:00am - - - - - NNE 9 11 5 6 - - -
28/12:30am - - - - - NNE 7 9 4 5 - - -
28/12:00am - - - - - NNE 7 11 4 6 - - -
 
Date/Time
EST
Temp
°C
App
Temp
°C
Dew
Point
°C
Rel
Hum
%
Delta-T
°C
Wind Press
QNH
hPa
Press
MSL
hPa
Rain since
9am
mm
Dir  Spd
km/h
Gust
km/h
Spd
kts
Gust
kts
27/11:30pm - - - - - NE 9 13 5 7 - - -
27/11:00pm - - - - - NNE 9 11 5 6 - - -
27/10:30pm - - - - - NNE 11 17 6 9 - - -
27/10:00pm - - - - - N 13 20 7 11 - - -
27/09:30pm - - - - - N 13 20 7 11 - - -
27/09:00pm - - - - - N 20 33 11 18 - - -
27/08:30pm - - - - - N 19 32 10 17 - - -
27/08:00pm - - - - - N 17 26 9 14 - - -
27/07:30pm - - - - - N 19 28 10 15 - - -
27/07:00pm - - - - - N 17 24 9 13 - - -
27/06:30pm - - - - - N 24 37 13 20 - - -
27/06:00pm - - - - - N 19 33 10 18 - - -
27/05:30pm - - - - - N 20 32 11 17 - - -
27/05:00pm - - - - - N 20 30 11 16 - - -
27/04:30pm - - - - - N 19 26 10 14 - - -
27/04:00pm - - - - - NNE 17 24 9 13 - - -
27/03:30pm - - - - - NNE 24 35 13 19 - - -
27/03:00pm - - - - - N 24 39 13 21 - - -
27/02:30pm - - - - - N 22 35 12 19 - - -
27/02:00pm - - - - - N 22 32 12 17 - - -
27/01:30pm - - - - - N 19 35 10 19 - - -
27/01:00pm - - - - - N 26 39 14 21 - - -
27/12:30pm - - - - - NNE 22 37 12 20 - - -
27/12:00pm - - - - - N 26 37 14 20 - - -
27/11:30am - - - - - N 22 35 12 19 - - -
27/11:00am - - - - - N 28 52 15 28 - - -
27/10:55am - - - - - N 33 52 18 28 - - -
27/10:30am - - - - - N 30 44 16 24 - - -
27/10:00am - - - - - N 24 37 13 20 - - -
27/09:30am - - - - - NNE 22 33 12 18 - - -
27/09:00am - - - - - NNE 19 28 10 15 - - -
27/08:30am - - - - - N 19 28 10 15 - - -
27/08:00am - - - - - NNE 19 28 10 15 - - -
27/07:30am - - - - - NNE 13 19 7 10 - - -
27/07:00am - - - - - NNE 13 17 7 9 - - -
27/06:30am - - - - - NE 2 4 1 2 - - -
27/06:00am - - - - - SE 2 6 1 3 - - -
27/05:30am - - - - - NNE 9 13 5 7 - - -
27/05:00am - - - - - SE 2 6 1 3 - - -
27/04:30am - - - - - ENE 2 7 1 4 - - -
27/04:00am - - - - - NNE 2 6 1 3 - - -
27/03:30am - - - - - ENE 6 9 3 5 - - -
27/03:00am - - - - - ENE 6 11 3 6 - - -
27/02:30am - - - - - NE 15 20 8 11 - - -
27/02:00am - - - - - NNE 13 19 7 10 - - -
27/01:30am - - - - - NE 11 15 6 8 - - -
27/01:00am - - - - - NE 9 15 5 8 - - -
27/12:30am - - - - - NE 11 15 6 8 - - -
27/12:00am - - - - - NE 15 20 8 11 - - -
 
Date/Time
EST
Temp
°C
App
Temp
°C
Dew
Point
°C
Rel
Hum
%
Delta-T
°C
Wind Press
QNH
hPa
Press
MSL
hPa
Rain since
9am
mm
Dir  Spd
km/h
Gust
km/h
Spd
kts
Gust
kts
26/11:30pm - - - - - NNE 13 17 7 9 - - -
26/11:00pm - - - - - NNE 15 20 8 11 - - -
26/10:30pm - - - - - NNE 13 17 7 9 - - -
26/10:00pm - - - - - NNE 11 15 6 8 - - -
26/09:30pm - - - - - NNE 11 15 6 8 - - -
26/09:00pm - - - - - NNE 13 17 7 9 - - -
26/08:30pm - - - - - NNE 11 13 6 7 - - -
26/08:00pm - - - - - NE 9 11 5 6 - - -
26/07:30pm - - - - - NE 9 11 5 6 - - -
26/07:00pm - - - - - NNE 11 15 6 8 - - -
26/06:30pm - - - - - NNE 9 13 5 7 - - -
26/06:00pm - - - - - NNE 11 15 6 8 - - -
26/05:30pm - - - - - NNE 11 19 6 10 - - -
26/05:00pm - - - - - NNE 13 19 7 10 - - -
26/04:30pm - - - - - NNE 15 19 8 10 - - -
26/04:00pm - - - - - N 13 20 7 11 - - -
26/03:30pm - - - - - N 19 28 10 15 - - -
26/03:00pm - - - - - SSE 7 11 4 6 - - -
26/02:30pm - - - - - SSE 13 13 7 7 - - -
26/02:00pm - - - - - S 15 17 8 9 - - -
26/01:30pm - - - - - S 13 15 7 8 - - -
26/01:00pm - - - - - S 9 9 5 5 - - -
26/12:30pm - - - - - N 6 11 3 6 - - -
26/12:00pm - - - - - NE 4 7 2 4 - - -
26/11:30am - - - - - N 4 7 2 4 - - -
26/11:00am - - - - - NNE 6 7 3 4 - - -
26/10:30am - - - - - NNE 7 11 4 6 - - -
26/10:00am - - - - - NNE 9 13 5 7 - - -
26/09:30am - - - - - NE 11 15 6 8 - - -
26/09:00am - - - - - NNE 11 17 6 9 - - -
26/08:30am - - - - - NE 13 19 7 10 - - -
26/08:00am - - - - - NE 6 11 3 6 - - -
26/07:30am - - - - - NNW 7 13 4 7 - - -
26/07:00am - - - - - NNE 6 9 3 5 - - -
26/06:30am - - - - - NE 2 7 1 4 - - -
26/06:00am - - - - - N 4 7 2 4 - - -
26/05:30am - - - - - N 4 7 2 4 - - -
26/05:00am - - - - - NNE 4 7 2 4 - - -
26/04:30am - - - - - NNE 4 6 2 3 - - -
26/04:00am - - - - - NNE 7 9 4 5 - - -
26/03:30am - - - - - NNE 9 13 5 7 - - -
26/03:00am - - - - - NE 7 13 4 7 - - -
26/02:30am - - - - - NE 4 7 2 4 - - -
26/02:00am - - - - - NNE 2 4 1 2 - - -
26/01:30am - - - - - NNE 6 7 3 4 - - -
26/01:00am - - - - - NNE 7 9 4 5 - - -
26/12:30am - - - - - ENE 4 6 2 3 - - -
26/12:00am - - - - - ENE 2 4 1 2 - - -
 
Date/Time
EST
Temp
°C
App
Temp
°C
Dew
Point
°C
Rel
Hum
%
Delta-T
°C
Wind Press
QNH
hPa
Press
MSL
hPa
Rain since
9am
mm
Dir  Spd
km/h
Gust
km/h
Spd
kts
Gust
kts
25/11:30pm - - - - - ENE 6 7 3 4 - - -
25/11:00pm - - - - - N 6 6 3 3 - - -
25/10:30pm - - - - - E 11 15 6 8 - - -
25/10:00pm - - - - - E 11 17 6 9 - - -
25/09:30pm - - - - - E 7 13 4 7 - - -
25/09:00pm - - - - - E 11 19 6 10 - - -
25/08:30pm - - - - - E 15 20 8 11 - - -
25/08:00pm - - - - - E 15 20 8 11 - - -
25/07:30pm - - - - - ESE 15 20 8 11 - - -
25/07:00pm - - - - - ESE 13 19 7 10 - - -
25/06:30pm - - - - - SE 17 22 9 12 - - -
25/06:00pm - - - - - SE 15 19 8 10 - - -
25/05:30pm - - - - - ESE 13 17 7 9 - - -
25/05:00pm - - - - - ESE 19 24 10 13 - - -
25/04:30pm - - - - - ESE 19 26 10 14 - - -
25/04:00pm - - - - - ESE 17 26 9 14 - - -
25/03:30pm - - - - - ESE 19 26 10 14 - - -
25/03:00pm - - - - - SE 19 28 10 15 - - -
25/02:30pm - - - - - SE 19 28 10 15 - - -
25/02:00pm - - - - - ESE 26 37 14 20 - - -
25/01:30pm - - - - - ESE 20 32 11 17 - - -
25/01:00pm - - - - - ESE 20 33 11 18 - - -
25/12:30pm - - - - - ESE 22 32 12 17 - - -
25/12:00pm - - - - - SE 20 30 11 16 - - -
25/11:30am - - - - - SE 24 37 13 20 - - -
25/11:00am - - - - - ESE 19 26 10 14 - - -
25/10:30am - - - - - SE 15 22 8 12 - - -
25/10:00am - - - - - SSW 7 11 4 6 - - -
25/09:30am - - - - - SSW 6 9 3 5 - - -
25/09:00am - - - - - SSE 6 9 3 5 - - -
25/08:30am - - - - - S 4 7 2 4 - - -
25/08:00am - - - - - SE 6 7 3 4 - - -
25/07:30am - - - - - ESE 4 6 2 3 - - -
25/07:00am - - - - - SE 7 9 4 5 - - -
25/06:30am - - - - - ESE 7 13 4 7 - - -
25/06:00am - - - - - SE 6 13 3 7 - - -
25/05:30am - - - - - ESE 7 11 4 6 - - -
25/05:00am - - - - - E 11 17 6 9 - - -
25/04:30am - - - - - E 13 19 7 10 - - -
25/04:00am - - - - - E 7 9 4 5 - - -
25/03:30am - - - - - ESE 7 9 4 5 - - -
25/03:00am - - - - - ESE 4 6 2 3 - - -

Other formats

Comma delimited format used in spreadsheet applications
http://www.bom.gov.au/fwo/IDV60801/IDV60801.95864.axf

JavaScript Object Notation format (JSON) in row-major order
http://www.bom.gov.au/fwo/IDV60801/IDV60801.95864.json

Data quality

Most of these data are generated automatically and are frequently updated. Quality checks on data are not normally performed. It is possible for incorrect values to appear. Refer to information at About Latest Weather Observations and please check the disclaimer before using these data.